sensor_id;sensor_type;location;lat;lon;timestamp;P1;durP1;ratioP1;P2;durP2;ratioP2
9964;SDS011;5023;53.554;9.964;2022-12-10T00:04:15;41.33;;;21.67;;
9964;SDS011;5023;53.554;9.964;2022-12-10T00:09:58;40.47;;;22.60;;
9964;SDS011;5023;53.554;9.964;2022-12-10T00:15:01;44.17;;;22.50;;
9964;SDS011;5023;53.554;9.964;2022-12-10T00:20:23;39.60;;;21.87;;
9964;SDS011;5023;53.554;9.964;2022-12-10T00:26:11;36.73;;;20.90;;
9964;SDS011;5023;53.554;9.964;2022-12-10T00:32:39;36.60;;;21.10;;
9964;SDS011;5023;53.554;9.964;2022-12-10T00:38:23;38.03;;;21.30;;
9964;SDS011;5023;53.554;9.964;2022-12-10T00:43:46;37.47;;;20.57;;
9964;SDS011;5023;53.554;9.964;2022-12-10T00:49:21;31.60;;;18.13;;
9964;SDS011;5023;53.554;9.964;2022-12-10T00:54:27;33.87;;;19.67;;
9964;SDS011;5023;53.554;9.964;2022-12-10T01:00:12;27.83;;;17.17;;
9964;SDS011;5023;53.554;9.964;2022-12-10T01:05:38;32.20;;;18.27;;
9964;SDS011;5023;53.554;9.964;2022-12-10T01:11:05;31.50;;;17.87;;
9964;SDS011;5023;53.554;9.964;2022-12-10T01:16:12;30.93;;;17.47;;
9964;SDS011;5023;53.554;9.964;2022-12-10T01:22:08;29.53;;;16.20;;
9964;SDS011;5023;53.554;9.964;2022-12-10T01:27:34;28.00;;;17.27;;
9964;SDS011;5023;53.554;9.964;2022-12-10T01:33:50;25.63;;;15.33;;
9964;SDS011;5023;53.554;9.964;2022-12-10T01:39:42;28.70;;;15.97;;
9964;SDS011;5023;53.554;9.964;2022-12-10T01:45:32;24.87;;;15.90;;
9964;SDS011;5023;53.554;9.964;2022-12-10T01:50:52;27.13;;;16.07;;
9964;SDS011;5023;53.554;9.964;2022-12-10T01:56:16;26.20;;;15.73;;
9964;SDS011;5023;53.554;9.964;2022-12-10T02:01:41;24.40;;;14.93;;
9964;SDS011;5023;53.554;9.964;2022-12-10T02:06:53;24.40;;;15.13;;
9964;SDS011;5023;53.554;9.964;2022-12-10T02:12:24;25.47;;;15.77;;
9964;SDS011;5023;53.554;9.964;2022-12-10T02:18:29;23.93;;;15.27;;
9964;SDS011;5023;53.554;9.964;2022-12-10T02:24:14;23.73;;;15.27;;
9964;SDS011;5023;53.554;9.964;2022-12-10T02:29:58;25.40;;;14.93;;
9964;SDS011;5023;53.554;9.964;2022-12-10T02:35:09;29.67;;;17.33;;
9964;SDS011;5023;53.554;9.964;2022-12-10T02:40:49;25.73;;;15.57;;
9964;SDS011;5023;53.554;9.964;2022-12-10T02:46:09;25.20;;;14.67;;
9964;SDS011;5023;53.554;9.964;2022-12-10T02:58:37;21.77;;;13.43;;
9964;SDS011;5023;53.554;9.964;2022-12-10T03:04:39;23.17;;;14.13;;
9964;SDS011;5023;53.554;9.964;2022-12-10T03:10:37;24.90;;;14.97;;
9964;SDS011;5023;53.554;9.964;2022-12-10T03:16:12;22.30;;;13.30;;
9964;SDS011;5023;53.554;9.964;2022-12-10T03:21:49;23.27;;;14.50;;
9964;SDS011;5023;53.554;9.964;2022-12-10T03:27:33;23.60;;;13.87;;
9964;SDS011;5023;53.554;9.964;2022-12-10T03:33:09;21.37;;;12.77;;
9964;SDS011;5023;53.554;9.964;2022-12-10T03:38:58;14.67;;;10.57;;
9964;SDS011;5023;53.554;9.964;2022-12-10T03:45:14;19.43;;;12.03;;
9964;SDS011;5023;53.554;9.964;2022-12-10T03:50:49;17.37;;;12.07;;
9964;SDS011;5023;53.554;9.964;2022-12-10T03:56:26;19.87;;;14.03;;
9964;SDS011;5023;53.554;9.964;2022-12-10T04:02:12;15.47;;;10.97;;
9964;SDS011;5023;53.554;9.964;2022-12-10T04:07:17;16.93;;;12.30;;
9964;SDS011;5023;53.554;9.964;2022-12-10T04:18:49;16.77;;;11.40;;
9964;SDS011;5023;53.554;9.964;2022-12-10T04:24:38;15.27;;;10.33;;
9964;SDS011;5023;53.554;9.964;2022-12-10T04:30:03;16.20;;;10.73;;
9964;SDS011;5023;53.554;9.964;2022-12-10T04:36:12;15.63;;;11.07;;
9964;SDS011;5023;53.554;9.964;2022-12-10T04:42:16;13.20;;;10.63;;
9964;SDS011;5023;53.554;9.964;2022-12-10T04:48:05;14.90;;;9.77;;
9964;SDS011;5023;53.554;9.964;2022-12-10T04:53:43;13.13;;;9.50;;
9964;SDS011;5023;53.554;9.964;2022-12-10T04:58:48;13.90;;;10.00;;
9964;SDS011;5023;53.554;9.964;2022-12-10T05:09:37;12.40;;;9.90;;
9964;SDS011;5023;53.554;9.964;2022-12-10T05:14:39;13.63;;;10.10;;
9964;SDS011;5023;53.554;9.964;2022-12-10T05:20:20;13.77;;;10.00;;
9964;SDS011;5023;53.554;9.964;2022-12-10T05:25:57;13.97;;;10.23;;
9964;SDS011;5023;53.554;9.964;2022-12-10T05:31:49;13.87;;;10.00;;
9964;SDS011;5023;53.554;9.964;2022-12-10T05:37:46;12.77;;;9.17;;
9964;SDS011;5023;53.554;9.964;2022-12-10T05:43:16;12.37;;;9.90;;
9964;SDS011;5023;53.554;9.964;2022-12-10T05:49:06;12.90;;;10.27;;
9964;SDS011;5023;53.554;9.964;2022-12-10T05:54:36;15.57;;;9.97;;
9964;SDS011;5023;53.554;9.964;2022-12-10T06:00:37;11.77;;;9.27;;
9964;SDS011;5023;53.554;9.964;2022-12-10T06:06:59;11.47;;;9.73;;
9964;SDS011;5023;53.554;9.964;2022-12-10T06:12:06;11.20;;;9.13;;
9964;SDS011;5023;53.554;9.964;2022-12-10T06:17:53;12.50;;;9.97;;
9964;SDS011;5023;53.554;9.964;2022-12-10T06:29:10;14.47;;;10.80;;
9964;SDS011;5023;53.554;9.964;2022-12-10T06:34:30;15.07;;;10.87;;
9964;SDS011;5023;53.554;9.964;2022-12-10T06:39:46;12.97;;;10.57;;
9964;SDS011;5023;53.554;9.964;2022-12-10T06:44:53;12.33;;;10.17;;
9964;SDS011;5023;53.554;9.964;2022-12-10T06:50:52;13.60;;;10.13;;
9964;SDS011;5023;53.554;9.964;2022-12-10T06:56:27;11.23;;;8.27;;
9964;SDS011;5023;53.554;9.964;2022-12-10T07:01:37;13.20;;;9.63;;
9964;SDS011;5023;53.554;9.964;2022-12-10T07:07:27;11.60;;;9.57;;
9964;SDS011;5023;53.554;9.964;2022-12-10T07:13:23;12.40;;;9.67;;
9964;SDS011;5023;53.554;9.964;2022-12-10T07:18:42;10.60;;;8.93;;
9964;SDS011;5023;53.554;9.964;2022-12-10T07:24:06;9.83;;;8.30;;
9964;SDS011;5023;53.554;9.964;2022-12-10T07:29:58;14.53;;;9.53;;
9964;SDS011;5023;53.554;9.964;2022-12-10T07:35:41;12.57;;;9.33;;
9964;SDS011;5023;53.554;9.964;2022-12-10T07:41:39;11.27;;;8.63;;
9964;SDS011;5023;53.554;9.964;2022-12-10T07:46:42;12.40;;;9.07;;
9964;SDS011;5023;53.554;9.964;2022-12-10T07:51:50;10.37;;;8.50;;
9964;SDS011;5023;53.554;9.964;2022-12-10T07:57:44;12.50;;;9.60;;
9964;SDS011;5023;53.554;9.964;2022-12-10T08:03:40;18.07;;;12.73;;
9964;SDS011;5023;53.554;9.964;2022-12-10T08:09:41;13.50;;;10.70;;
9964;SDS011;5023;53.554;9.964;2022-12-10T08:15:18;12.67;;;9.90;;
9964;SDS011;5023;53.554;9.964;2022-12-10T08:20:28;14.27;;;10.10;;
9964;SDS011;5023;53.554;9.964;2022-12-10T08:26:27;13.50;;;9.33;;
9964;SDS011;5023;53.554;9.964;2022-12-10T08:32:04;11.60;;;9.13;;
9964;SDS011;5023;53.554;9.964;2022-12-10T08:37:08;11.17;;;9.10;;
9964;SDS011;5023;53.554;9.964;2022-12-10T08:42:50;13.73;;;10.37;;
9964;SDS011;5023;53.554;9.964;2022-12-10T08:48:35;10.77;;;8.60;;
9964;SDS011;5023;53.554;9.964;2022-12-10T08:54:24;11.67;;;9.80;;
9964;SDS011;5023;53.554;9.964;2022-12-10T08:59:43;29.87;;;16.07;;
9964;SDS011;5023;53.554;9.964;2022-12-10T09:05:44;20.37;;;14.67;;
9964;SDS011;5023;53.554;9.964;2022-12-10T09:11:24;9.93;;;8.80;;
9964;SDS011;5023;53.554;9.964;2022-12-10T09:17:09;10.47;;;9.10;;
9964;SDS011;5023;53.554;9.964;2022-12-10T09:22:49;34.13;;;22.00;;
9964;SDS011;5023;53.554;9.964;2022-12-10T09:27:52;57.93;;;34.10;;
9964;SDS011;5023;53.554;9.964;2022-12-10T09:33:28;18.37;;;14.50;;
9964;SDS011;5023;53.554;9.964;2022-12-10T09:39:04;24.47;;;16.67;;
9964;SDS011;5023;53.554;9.964;2022-12-10T09:44:10;16.07;;;11.57;;
9964;SDS011;5023;53.554;9.964;2022-12-10T09:50:16;11.93;;;10.63;;
9964;SDS011;5023;53.554;9.964;2022-12-10T09:55:57;9.60;;;8.20;;
9964;SDS011;5023;53.554;9.964;2022-12-10T10:01:56;30.53;;;22.40;;
9964;SDS011;5023;53.554;9.964;2022-12-10T10:08:12;11.87;;;9.63;;
9964;SDS011;5023;53.554;9.964;2022-12-10T10:13:56;10.97;;;9.60;;
9964;SDS011;5023;53.554;9.964;2022-12-10T10:19:43;9.77;;;7.53;;
9964;SDS011;5023;53.554;9.964;2022-12-10T10:25:23;8.83;;;7.87;;
9964;SDS011;5023;53.554;9.964;2022-12-10T10:30:59;9.57;;;8.03;;
9964;SDS011;5023;53.554;9.964;2022-12-10T10:36:06;8.50;;;7.60;;
9964;SDS011;5023;53.554;9.964;2022-12-10T10:41:54;12.47;;;9.70;;
9964;SDS011;5023;53.554;9.964;2022-12-10T10:47:55;10.47;;;8.60;;
9964;SDS011;5023;53.554;9.964;2022-12-10T10:53:45;40.73;;;27.00;;
9964;SDS011;5023;53.554;9.964;2022-12-10T10:59:29;8.97;;;7.53;;
9964;SDS011;5023;53.554;9.964;2022-12-10T11:05:29;8.30;;;7.43;;
9964;SDS011;5023;53.554;9.964;2022-12-10T11:11:10;11.23;;;9.60;;
9964;SDS011;5023;53.554;9.964;2022-12-10T11:17:12;9.93;;;8.10;;
9964;SDS011;5023;53.554;9.964;2022-12-10T11:23:15;9.60;;;8.30;;
9964;SDS011;5023;53.554;9.964;2022-12-10T11:35:12;35.37;;;21.60;;
9964;SDS011;5023;53.554;9.964;2022-12-10T11:40:59;24.80;;;17.03;;
9964;SDS011;5023;53.554;9.964;2022-12-10T11:47:14;18.43;;;13.03;;
9964;SDS011;5023;53.554;9.964;2022-12-10T11:53:11;14.37;;;11.80;;
9964;SDS011;5023;53.554;9.964;2022-12-10T11:59:16;12.27;;;9.67;;
9964;SDS011;5023;53.554;9.964;2022-12-10T12:05:13;11.03;;;8.97;;
9964;SDS011;5023;53.554;9.964;2022-12-10T12:11:08;12.23;;;9.87;;
9964;SDS011;5023;53.554;9.964;2022-12-10T12:17:02;12.80;;;9.80;;
9964;SDS011;5023;53.554;9.964;2022-12-10T12:22:13;11.90;;;10.53;;
9964;SDS011;5023;53.554;9.964;2022-12-10T12:34:01;12.27;;;9.57;;
9964;SDS011;5023;53.554;9.964;2022-12-10T12:40:02;19.20;;;13.67;;
9964;SDS011;5023;53.554;9.964;2022-12-10T12:45:44;13.17;;;10.40;;
9964;SDS011;5023;53.554;9.964;2022-12-10T12:51:26;20.97;;;15.50;;
9964;SDS011;5023;53.554;9.964;2022-12-10T12:57:12;25.77;;;18.53;;
9964;SDS011;5023;53.554;9.964;2022-12-10T13:02:57;14.30;;;11.53;;
9964;SDS011;5023;53.554;9.964;2022-12-10T13:08:44;15.83;;;12.20;;
9964;SDS011;5023;53.554;9.964;2022-12-10T13:14:32;18.03;;;13.17;;
9964;SDS011;5023;53.554;9.964;2022-12-10T13:26:26;13.30;;;11.27;;
9964;SDS011;5023;53.554;9.964;2022-12-10T13:32:42;16.87;;;11.03;;
9964;SDS011;5023;53.554;9.964;2022-12-10T13:38:22;14.60;;;11.83;;
9964;SDS011;5023;53.554;9.964;2022-12-10T13:43:36;14.63;;;11.13;;
9964;SDS011;5023;53.554;9.964;2022-12-10T13:49:34;14.60;;;11.07;;
9964;SDS011;5023;53.554;9.964;2022-12-10T13:55:46;14.27;;;10.93;;
9964;SDS011;5023;53.554;9.964;2022-12-10T14:01:33;15.70;;;11.50;;
9964;SDS011;5023;53.554;9.964;2022-12-10T14:07:33;12.93;;;10.47;;
9964;SDS011;5023;53.554;9.964;2022-12-10T14:13:10;13.17;;;10.83;;
9964;SDS011;5023;53.554;9.964;2022-12-10T14:18:52;12.27;;;9.70;;
9964;SDS011;5023;53.554;9.964;2022-12-10T14:24:34;17.43;;;12.03;;
9964;SDS011;5023;53.554;9.964;2022-12-10T14:30:15;15.10;;;11.73;;
9964;SDS011;5023;53.554;9.964;2022-12-10T14:35:57;14.23;;;10.77;;
9964;SDS011;5023;53.554;9.964;2022-12-10T14:42:14;20.00;;;14.93;;
9964;SDS011;5023;53.554;9.964;2022-12-10T14:48:03;18.93;;;13.40;;
9964;SDS011;5023;53.554;9.964;2022-12-10T14:54:12;17.90;;;13.20;;
9964;SDS011;5023;53.554;9.964;2022-12-10T15:00:16;14.23;;;11.63;;
9964;SDS011;5023;53.554;9.964;2022-12-10T15:05:58;18.43;;;12.93;;
9964;SDS011;5023;53.554;9.964;2022-12-10T15:11:25;14.37;;;10.50;;
9964;SDS011;5023;53.554;9.964;2022-12-10T15:17:03;15.83;;;12.77;;
9964;SDS011;5023;53.554;9.964;2022-12-10T15:29:15;15.47;;;12.07;;
9964;SDS011;5023;53.554;9.964;2022-12-10T15:35:14;16.70;;;11.27;;
9964;SDS011;5023;53.554;9.964;2022-12-10T15:40:49;14.30;;;12.33;;
9964;SDS011;5023;53.554;9.964;2022-12-10T15:46:27;18.97;;;13.93;;
9964;SDS011;5023;53.554;9.964;2022-12-10T15:52:25;33.73;;;24.13;;
9964;SDS011;5023;53.554;9.964;2022-12-10T15:58:18;17.63;;;13.50;;
9964;SDS011;5023;53.554;9.964;2022-12-10T16:04:04;17.33;;;13.77;;
9964;SDS011;5023;53.554;9.964;2022-12-10T16:09:32;16.63;;;13.27;;
9964;SDS011;5023;53.554;9.964;2022-12-10T16:15:15;16.93;;;13.57;;
9964;SDS011;5023;53.554;9.964;2022-12-10T16:21:22;19.97;;;14.07;;
9964;SDS011;5023;53.554;9.964;2022-12-10T16:27:21;17.80;;;14.00;;
9964;SDS011;5023;53.554;9.964;2022-12-10T16:32:50;24.97;;;17.57;;
9964;SDS011;5023;53.554;9.964;2022-12-10T16:38:35;26.67;;;19.20;;
9964;SDS011;5023;53.554;9.964;2022-12-10T16:44:37;20.67;;;15.40;;
9964;SDS011;5023;53.554;9.964;2022-12-10T16:50:17;41.00;;;22.50;;
9964;SDS011;5023;53.554;9.964;2022-12-10T16:55:57;21.57;;;16.13;;
9964;SDS011;5023;53.554;9.964;2022-12-10T17:02:17;25.77;;;17.47;;
9964;SDS011;5023;53.554;9.964;2022-12-10T17:08:05;23.30;;;16.77;;
9964;SDS011;5023;53.554;9.964;2022-12-10T17:13:52;28.33;;;19.17;;
9964;SDS011;5023;53.554;9.964;2022-12-10T17:25:33;23.13;;;16.63;;
9964;SDS011;5023;53.554;9.964;2022-12-10T17:31:44;20.03;;;14.43;;
9964;SDS011;5023;53.554;9.964;2022-12-10T17:37:28;21.23;;;14.90;;
9964;SDS011;5023;53.554;9.964;2022-12-10T17:43:05;27.77;;;16.63;;
9964;SDS011;5023;53.554;9.964;2022-12-10T17:48:43;28.40;;;18.53;;
9964;SDS011;5023;53.554;9.964;2022-12-10T17:54:41;29.03;;;18.77;;
9964;SDS011;5023;53.554;9.964;2022-12-10T18:00:21;25.73;;;18.17;;
9964;SDS011;5023;53.554;9.964;2022-12-10T18:06:00;25.43;;;16.80;;
9964;SDS011;5023;53.554;9.964;2022-12-10T18:12:02;20.83;;;14.17;;
9964;SDS011;5023;53.554;9.964;2022-12-10T18:18:03;32.63;;;21.43;;
9964;SDS011;5023;53.554;9.964;2022-12-10T18:23:49;33.40;;;21.93;;
9964;SDS011;5023;53.554;9.964;2022-12-10T18:29:39;18.77;;;13.53;;
9964;SDS011;5023;53.554;9.964;2022-12-10T18:35:20;27.40;;;17.97;;
9964;SDS011;5023;53.554;9.964;2022-12-10T18:40:58;23.77;;;16.50;;
9964;SDS011;5023;53.554;9.964;2022-12-10T18:46:37;20.03;;;14.23;;
9964;SDS011;5023;53.554;9.964;2022-12-10T18:52:13;15.77;;;12.33;;
9964;SDS011;5023;53.554;9.964;2022-12-10T18:57:50;21.90;;;15.83;;
9964;SDS011;5023;53.554;9.964;2022-12-10T19:03:59;25.57;;;17.03;;
9964;SDS011;5023;53.554;9.964;2022-12-10T19:09:34;23.00;;;15.47;;
9964;SDS011;5023;53.554;9.964;2022-12-10T19:14:40;20.77;;;14.57;;
9964;SDS011;5023;53.554;9.964;2022-12-10T19:20:27;20.90;;;14.27;;
9964;SDS011;5023;53.554;9.964;2022-12-10T19:26:27;21.17;;;14.40;;
9964;SDS011;5023;53.554;9.964;2022-12-10T19:31:39;21.30;;;15.13;;
9964;SDS011;5023;53.554;9.964;2022-12-10T19:37:39;18.03;;;12.80;;
9964;SDS011;5023;53.554;9.964;2022-12-10T19:43:17;20.90;;;14.93;;
9964;SDS011;5023;53.554;9.964;2022-12-10T19:49:15;16.70;;;12.43;;
9964;SDS011;5023;53.554;9.964;2022-12-10T20:01:35;14.87;;;11.23;;
9964;SDS011;5023;53.554;9.964;2022-12-10T20:07:16;20.87;;;14.93;;
9964;SDS011;5023;53.554;9.964;2022-12-10T20:12:58;23.67;;;16.57;;
9964;SDS011;5023;53.554;9.964;2022-12-10T20:19:01;21.17;;;15.83;;
9964;SDS011;5023;53.554;9.964;2022-12-10T20:24:40;22.17;;;13.73;;
9964;SDS011;5023;53.554;9.964;2022-12-10T20:30:42;24.13;;;15.70;;
9964;SDS011;5023;53.554;9.964;2022-12-10T20:36:40;16.87;;;11.80;;
9964;SDS011;5023;53.554;9.964;2022-12-10T20:42:18;21.77;;;15.43;;
9964;SDS011;5023;53.554;9.964;2022-12-10T20:47:58;28.30;;;21.37;;
9964;SDS011;5023;53.554;9.964;2022-12-10T20:53:46;22.57;;;16.07;;
9964;SDS011;5023;53.554;9.964;2022-12-10T20:59:35;19.90;;;15.13;;
9964;SDS011;5023;53.554;9.964;2022-12-10T21:05:38;20.93;;;14.60;;
9964;SDS011;5023;53.554;9.964;2022-12-10T21:10:41;26.80;;;16.67;;
9964;SDS011;5023;53.554;9.964;2022-12-10T21:16:31;29.07;;;17.50;;
9964;SDS011;5023;53.554;9.964;2022-12-10T21:22:09;27.13;;;18.23;;
9964;SDS011;5023;53.554;9.964;2022-12-10T21:28:05;22.93;;;15.97;;
9964;SDS011;5023;53.554;9.964;2022-12-10T21:33:42;20.10;;;14.13;;
9964;SDS011;5023;53.554;9.964;2022-12-10T21:39:17;30.87;;;20.43;;
9964;SDS011;5023;53.554;9.964;2022-12-10T21:44:24;21.63;;;15.10;;
9964;SDS011;5023;53.554;9.964;2022-12-10T21:50:19;20.63;;;13.77;;
9964;SDS011;5023;53.554;9.964;2022-12-10T21:56:03;24.60;;;17.40;;
9964;SDS011;5023;53.554;9.964;2022-12-10T22:02:03;23.63;;;15.80;;
9964;SDS011;5023;53.554;9.964;2022-12-10T22:07:44;18.23;;;12.93;;
9964;SDS011;5023;53.554;9.964;2022-12-10T22:13:20;39.60;;;26.80;;
9964;SDS011;5023;53.554;9.964;2022-12-10T22:18:46;22.23;;;14.43;;
9964;SDS011;5023;53.554;9.964;2022-12-10T22:24:31;23.07;;;14.03;;
9964;SDS011;5023;53.554;9.964;2022-12-10T22:30:07;23.53;;;15.23;;
9964;SDS011;5023;53.554;9.964;2022-12-10T22:35:46;21.13;;;15.07;;
9964;SDS011;5023;53.554;9.964;2022-12-10T22:41:44;19.27;;;13.40;;
9964;SDS011;5023;53.554;9.964;2022-12-10T22:47:21;30.47;;;19.27;;
9964;SDS011;5023;53.554;9.964;2022-12-10T22:52:59;17.23;;;12.40;;
9964;SDS011;5023;53.554;9.964;2022-12-10T22:59:03;17.47;;;12.30;;
9964;SDS011;5023;53.554;9.964;2022-12-10T23:04:40;15.77;;;11.83;;
9964;SDS011;5023;53.554;9.964;2022-12-10T23:10:21;20.60;;;14.43;;
9964;SDS011;5023;53.554;9.964;2022-12-10T23:16:07;17.73;;;12.80;;
9964;SDS011;5023;53.554;9.964;2022-12-10T23:21:46;15.37;;;10.63;;
9964;SDS011;5023;53.554;9.964;2022-12-10T23:27:21;12.37;;;9.10;;
9964;SDS011;5023;53.554;9.964;2022-12-10T23:32:26;16.33;;;10.27;;
9964;SDS011;5023;53.554;9.964;2022-12-10T23:38:05;24.37;;;16.33;;
9964;SDS011;5023;53.554;9.964;2022-12-10T23:43:41;16.57;;;12.30;;
9964;SDS011;5023;53.554;9.964;2022-12-10T23:49:29;13.00;;;9.73;;
9964;SDS011;5023;53.554;9.964;2022-12-10T23:55:31;13.13;;;9.60;;
